Hauptseite
METAR-TAF:

METAR-TAF

Flughäfen :

Flughafen Weeze

Weeze, Deutschland

Breite: 51-36-09N, Länge: 006-08-32E, Höhe: 32 m

Beobachtung

Neuester Wetterbericht von vor 39 Minuten, um 05:20 UTC
Wind 6 kt aus Süd
Temperatur 7°C
Luftfeuchtigkeit 93%
Luftdruck 1025 hPa
Sichtweite 10 km oder mehr
keine Wolken unter 1500 m und keine Kumulonimbus oder Gewitterwolken

METAR: EDLV 070520Z 18006KT CAVOK 07/06 Q1025

Zeit: 07:59 (05:59 UTC)

Prognose

Neuester Wetterbericht von vor 59 Minuten, um 05:00 UTC
Gültige Prognose vom 07 um 06 UTC bis 08 um 06 UTC
Wind 8 kt aus Süd/Südwest
Sichtweite 10 km oder mehr
Leicht bewölkt in der Höhe von 4000 ft
Zeitweise
vom 08 um 03 UTC bis 08 um 05 UTC
Wind 14 kt aus Südwest
Sichtweite: 4000 m
Durchbrochene Bewölkung in der Höhe von 1200 ft, Towering cumulus.
Regenschauer

TAF: EDLV 070500Z 0706/0806 20008KT 9999 FEW040 TEMPO 0803/0805 23014KT 4000 SHRA BKN012TCU

Wetterbeobachtungen und Prognosen von mehr als 4000 Flughäfen (METAR und TAF Bericht).

Die verfügbaren Stationen werden durch gelbe und rote Markierungen auf der Karte dargestellt.

Führen Sie die Maus auf sie, um den Namen der Station zu sehen.

Darauf klicken, um die Beobachtung von Wetterbeobachtungen und Prognosen zu sehen.

Um die Karte zu ändern : klicken Sie auf den grünen Tasten mit einem schwarzen Kreuz Zum Vergrößern, auf den grünen Button mit einem Gedankenstrich zu verkleinern, oder auf die grünen Pfeile für benachbarte Karten.


METAR-TAF: